Time;durP1;ratioP1;P1;durP2;ratioP2;P2;SDS_P1;SDS_P2;PMS_P1;PMS_P2;Temp;Humidity;BMP_temperature;BMP_pressure;BME280_temperature;BME280_humidity;BME280_pressure;Samples;Min_cycle;Max_cycle;Signal;HPM_P1;HPM_P2
2023/03/14 00:00:08;;;;;;;;;;;;;;;19.89;46.73;98399.81;7260593;19;154558;-54
2023/03/14 00:02:35;;;;;;;;;;;;;;;19.93;46.62;98406.31;7251942;19;154336;-56
2023/03/14 00:05:06;;;;;;;;;;;;;;;19.93;46.58;98409.94;7255658;19;152819;-55
2023/03/14 00:07:35;;;;;;;;;;;;;;;19.91;46.46;98409.47;7261457;19;154141;-55
2023/03/14 00:10:04;;;;;;;;;;;;;;;19.84;46.54;98406.53;7263582;19;154625;-54
2023/03/14 00:12:31;;;;;;;;;;;;;;;19.82;46.62;98406.06;7263895;19;153724;-55
2023/03/14 00:15:00;;;;;;;;;;;;;;;19.81;46.71;98403.63;7263653;19;155591;-55
2023/03/14 00:17:27;;;;;;;;;;;;;;;19.79;46.72;98409.63;7261367;19;154498;-54
2023/03/14 00:19:54;;;;;;;;;;;;;;;19.77;47.22;98411.13;7258289;19;153946;-55
2023/03/14 00:22:21;;;;;;;;;;;;;;;19.75;47.41;98414.31;7267229;19;153082;-54
2023/03/14 00:24:48;;;;;;;;;;;;;;;19.73;47.01;98411.06;7258706;19;155648;-54
2023/03/14 00:27:15;;;;;;;;;;;;;;;19.73;47.07;98415.84;7259911;19;152199;-54
2023/03/14 00:29:42;;;;;;;;;;;;;;;19.73;47.32;98415.84;7261050;19;154151;-55
2023/03/14 00:32:09;;;;;;;;;;;;;;;19.71;47.16;98416.25;7261927;19;154516;-55
2023/03/14 00:34:37;;;;;;;;;;;;;;;19.69;47.65;98421.38;7258629;19;153418;-54
2023/03/14 00:37:04;;;;;;;;;;;;;;;19.67;47.37;98414.53;7260975;19;153562;-55
2023/03/14 00:39:31;;;;;;;;;;;;;;;19.67;47.37;98423.72;7259870;19;153928;-55
2023/03/14 00:41:58;;;;;;;;;;;;;;;19.68;47.41;98425.34;7262834;19;153571;-56
2023/03/14 00:44:25;;;;;;;;;;;;;;;19.66;47.99;98421.31;7268069;19;154065;-55
2023/03/14 00:46:52;;;;;;;;;;;;;;;19.64;47.97;98435.66;7263013;19;153495;-55
2023/03/14 00:49:20;;;;;;;;;;;;;;;19.63;48.09;98428.44;7258980;19;153742;-55
2023/03/14 00:51:47;;;;;;;;;;;;;;;19.63;47.80;98436.00;7262297;19;154055;-55
2023/03/14 00:54:14;;;;;;;;;;;;;;;19.60;48.27;98433.94;7259323;19;153258;-55
2023/03/14 00:56:41;;;;;;;;;;;;;;;19.61;48.00;98439.19;7258779;19;153646;-55
2023/03/14 00:59:08;;;;;;;;;;;;;;;19.57;48.53;98435.50;7257835;19;153088;-55
2023/03/14 01:01:39;;;;;;;;;;;;;;;19.61;48.29;98427.19;7262721;19;152875;-55
2023/03/14 01:04:06;;;;;;;;;;;;;;;19.58;48.46;98489.53;7259756;19;154069;-55
2023/03/14 01:06:33;;;;;;;;;;;;;;;19.58;48.60;98509.94;7270741;19;152903;-56
2023/03/14 01:09:00;;;;;;;;;;;;;;;19.59;48.74;98536.78;7257775;19;153527;-55
2023/03/14 01:11:29;;;;;;;;;;;;;;;19.59;48.40;98538.75;7260982;19;153036;-55
2023/03/14 01:13:56;;;;;;;;;;;;;;;19.58;48.64;98553.97;7257987;19;154791;-55
2023/03/14 01:16:24;;;;;;;;;;;;;;;19.57;48.75;98574.72;7255818;19;154196;-55
2023/03/14 01:18:51;;;;;;;;;;;;;;;19.56;48.62;98573.91;7256989;19;154036;-56
2023/03/14 01:21:20;;;;;;;;;;;;;;;19.59;48.33;98570.38;7257443;19;153222;-54
2023/03/14 01:23:48;;;;;;;;;;;;;;;19.57;48.84;98599.94;7256012;19;156468;-54
2023/03/14 01:26:16;;;;;;;;;;;;;;;19.54;48.55;98609.84;7261575;19;153779;-55
2023/03/14 01:28:43;;;;;;;;;;;;;;;19.52;48.67;98615.03;7263439;19;152098;-55
2023/03/14 01:31:10;;;;;;;;;;;;;;;19.51;48.46;98627.38;7260672;19;153955;-55
2023/03/14 01:33:37;;;;;;;;;;;;;;;19.51;48.58;98636.59;7257358;19;154327;-56
2023/03/14 01:36:05;;;;;;;;;;;;;;;19.50;48.55;98646.16;7255949;19;153945;-56
2023/03/14 01:38:32;;;;;;;;;;;;;;;19.48;48.48;98662.53;7255938;19;154008;-54
2023/03/14 01:41:00;;;;;;;;;;;;;;;19.46;48.91;98669.66;7256500;19;152951;-55
2023/03/14 01:43:27;;;;;;;;;;;;;;;19.43;48.99;98685.19;7256996;19;153089;-56
2023/03/14 01:45:57;;;;;;;;;;;;;;;19.43;48.96;98681.53;7258845;19;153728;-56
2023/03/14 01:48:26;;;;;;;;;;;;;;;19.43;48.90;98695.53;7266658;19;154567;-54
2023/03/14 01:50:53;;;;;;;;;;;;;;;19.41;48.68;98700.66;7257621;19;152824;-55
2023/03/14 01:53:21;;;;;;;;;;;;;;;19.41;48.80;98704.28;7255769;19;153566;-55
2023/03/14 01:55:49;;;;;;;;;;;;;;;19.39;48.80;98703.03;7254282;19;153418;-56
2023/03/14 01:58:16;;;;;;;;;;;;;;;19.37;48.67;98722.97;7259286;19;153026;-55
2023/03/14 02:00:43;;;;;;;;;;;;;;;19.35;48.55;98733.69;7255038;19;154539;-55
2023/03/14 02:03:12;;;;;;;;;;;;;;;19.34;48.59;98734.06;7258216;19;154003;-55
2023/03/14 02:05:40;;;;;;;;;;;;;;;19.35;48.90;98755.31;7256282;19;152956;-55
2023/03/14 02:08:09;;;;;;;;;;;;;;;19.32;48.80;98756.81;7258525;19;154541;-56
2023/03/14 02:10:39;;;;;;;;;;;;;;;19.32;48.55;98759.63;7262252;19;153152;-55
2023/03/14 02:13:06;;;;;;;;;;;;;;;19.32;48.90;98764.41;7257130;19;151924;-55
2023/03/14 02:15:34;;;;;;;;;;;;;;;19.30;48.46;98769.56;7257534;19;154323;-55
2023/03/14 02:18:02;;;;;;;;;;;;;;;19.28;48.52;98775.50;7258850;19;153256;-56
2023/03/14 02:20:32;;;;;;;;;;;;;;;19.26;48.51;98786.22;7256791;19;153992;-55
2023/03/14 02:22:59;;;;;;;;;;;;;;;19.26;48.59;98779.84;7253252;19;154125;-56
2023/03/14 02:25:34;;;;;;;;;;;;;;;19.25;48.81;98793.00;7256836;19;152728;-55
2023/03/14 02:28:01;;;;;;;;;;;;;;;19.24;48.90;98794.16;7258943;19;153027;-56
2023/03/14 02:30:30;;;;;;;;;;;;;;;19.25;48.39;98809.00;7255156;19;153380;-54
2023/03/14 02:32:59;;;;;;;;;;;;;;;19.22;48.46;98813.28;7263240;19;153625;-55
2023/03/14 02:35:29;;;;;;;;;;;;;;;19.22;48.36;98824.50;7253182;19;153720;-55
2023/03/14 02:38:00;;;;;;;;;;;;;;;19.20;48.61;98848.41;7255992;19;153511;-55
2023/03/14 02:40:27;;;;;;;;;;;;;;;19.19;48.19;98849.56;7252901;19;153168;-55
2023/03/14 02:42:54;;;;;;;;;;;;;;;19.18;48.28;98859.97;7258076;19;153834;-55
2023/03/14 02:45:21;;;;;;;;;;;;;;;19.17;48.44;98885.53;7259435;19;155236;-56
2023/03/14 02:47:54;;;;;;;;;;;;;;;19.15;48.16;98879.44;7258578;19;153098;-55
2023/03/14 02:50:22;;;;;;;;;;;;;;;19.15;48.14;98885.84;7256544;19;156322;-55
2023/03/14 02:52:49;;;;;;;;;;;;;;;19.15;48.24;98896.22;7258116;19;154161;-54
2023/03/14 02:55:19;;;;;;;;;;;;;;;19.14;47.76;98894.59;7260021;19;153222;-55
2023/03/14 02:57:46;;;;;;;;;;;;;;;19.12;48.10;98894.16;7259473;19;153242;-55
2023/03/14 03:00:14;;;;;;;;;;;;;;;19.12;47.83;98905.34;7255912;19;153333;-55
2023/03/14 03:02:41;;;;;;;;;;;;;;;19.09;47.63;98907.66;7255869;19;152753;-55
2023/03/14 03:05:08;;;;;;;;;;;;;;;19.08;47.81;98911.63;7257243;19;153568;-56
2023/03/14 03:07:35;;;;;;;;;;;;;;;19.07;47.57;98920.38;7257528;19;153955;-55
2023/03/14 03:10:02;;;;;;;;;;;;;;;19.07;47.48;98925.97;7253220;19;152934;-55
2023/03/14 03:12:29;;;;;;;;;;;;;;;19.05;47.11;98936.69;7255161;19;153320;-55
2023/03/14 03:14:56;;;;;;;;;;;;;;;19.04;47.12;98944.28;7254889;19;154470;-55
2023/03/14 03:17:23;;;;;;;;;;;;;;;19.02;47.27;98945.78;7264573;19;154946;-54
2023/03/14 03:19:50;;;;;;;;;;;;;;;19.00;46.94;98951.72;7259762;19;153685;-55
2023/03/14 03:22:17;;;;;;;;;;;;;;;18.99;47.17;98955.69;7256769;19;153560;-55
2023/03/14 03:24:44;;;;;;;;;;;;;;;18.97;46.80;98954.41;7255192;19;153789;-55
2023/03/14 03:27:11;;;;;;;;;;;;;;;18.96;46.71;98964.78;7252733;19;152949;-54
2023/03/14 03:29:38;;;;;;;;;;;;;;;18.96;46.79;98975.97;7256989;19;153926;-55
2023/03/14 03:32:05;;;;;;;;;;;;;;;18.95;46.66;98985.53;7256339;19;153979;-55
2023/03/14 03:34:31;;;;;;;;;;;;;;;18.92;46.71;98986.22;7255993;19;153378;-56
2023/03/14 03:36:59;;;;;;;;;;;;;;;18.92;47.07;98989.03;7259049;19;154253;-55
2023/03/14 03:39:25;;;;;;;;;;;;;;;18.92;46.68;98996.59;7263342;19;153971;-56
2023/03/14 03:41:52;;;;;;;;;;;;;;;18.92;46.66;99007.78;7262491;19;155016;-56
2023/03/14 03:44:19;;;;;;;;;;;;;;;18.89;47.07;99009.31;7263047;19;151929;-56
2023/03/14 03:46:46;;;;;;;;;;;;;;;18.89;46.64;99023.31;7261905;19;152906;-55
2023/03/14 03:49:13;;;;;;;;;;;;;;;18.87;46.96;99022.81;7259985;19;153843;-55
2023/03/14 03:51:40;;;;;;;;;;;;;;;18.86;46.55;99026.78;7264883;19;153027;-54
2023/03/14 03:54:07;;;;;;;;;;;;;;;18.84;46.90;99029.13;7259964;19;155265;-55
2023/03/14 03:56:34;;;;;;;;;;;;;;;18.82;46.67;99031.41;7260980;19;153333;-55
2023/03/14 03:59:01;;;;;;;;;;;;;;;18.83;46.57;99047.06;7270467;19;153671;-56
2023/03/14 04:01:29;;;;;;;;;;;;;;;18.81;46.57;99049.38;7261718;19;153992;-55
2023/03/14 04:03:56;;;;;;;;;;;;;;;18.80;46.32;99058.13;7262727;19;152738;-55
2023/03/14 04:06:23;;;;;;;;;;;;;;;18.78;46.45;99050.06;7264850;19;154107;-54
2023/03/14 04:08:50;;;;;;;;;;;;;;;18.78;46.55;99064.03;7259925;19;155854;-56
2023/03/14 04:11:17;;;;;;;;;;;;;;;18.75;46.53;99073.13;7262026;19;152651;-56
2023/03/14 04:13:44;;;;;;;;;;;;;;;18.73;45.93;99069.84;7262555;19;154988;-55
2023/03/14 04:16:14;;;;;;;;;;;;;;;18.71;45.56;99080.56;7263044;19;155909;-56
2023/03/14 04:18:41;;;;;;;;;;;;;;;18.71;45.67;99085.34;7261807;19;152810;-54
2023/03/14 04:21:08;;;;;;;;;;;;;;;18.69;45.91;99087.66;7263902;19;154822;-54
2023/03/14 04:23:36;;;;;;;;;;;;;;;18.67;45.55;99088.81;7257232;19;152455;-55
2023/03/14 04:26:03;;;;;;;;;;;;;;;18.64;45.85;99103.50;7263710;19;153363;-55
2023/03/14 04:28:30;;;;;;;;;;;;;;;18.64;45.70;99125.03;7261497;19;153343;-55
2023/03/14 04:30:57;;;;;;;;;;;;;;;18.63;45.76;99137.38;7263233;19;152972;-56
2023/03/14 04:33:24;;;;;;;;;;;;;;;18.63;45.52;99145.78;7261634;19;153246;-56
2023/03/14 04:35:53;;;;;;;;;;;;;;;18.60;45.47;99154.84;7261504;19;154542;-56
2023/03/14 04:38:20;;;;;;;;;;;;;;;18.59;45.68;99156.81;7257042;19;154066;-56
2023/03/14 04:40:47;;;;;;;;;;;;;;;18.59;45.52;99164.41;7258794;19;154908;-55
2023/03/14 04:43:14;;;;;;;;;;;;;;;18.56;45.55;99165.91;7267519;19;153446;-55
2023/03/14 04:45:42;;;;;;;;;;;;;;;18.55;45.19;99171.81;7261865;19;154197;-55
2023/03/14 04:48:09;;;;;;;;;;;;;;;18.53;45.30;99176.97;7257582;19;153915;-56
2023/03/14 04:50:36;;;;;;;;;;;;;;;18.52;45.41;99187.28;7260246;19;153267;-54
2023/03/14 04:53:02;;;;;;;;;;;;;;;18.53;45.21;99197.31;7258947;19;154764;-55
2023/03/14 04:55:32;;;;;;;;;;;;;;;18.52;45.31;99198.47;7256591;19;153263;-55
2023/03/14 04:57:59;;;;;;;;;;;;;;;18.51;45.62;99210.81;7261715;19;153779;-56
2023/03/14 05:00:25;;;;;;;;;;;;;;;18.52;45.56;99220.03;7261666;19;154400;-55
2023/03/14 05:02:52;;;;;;;;;;;;;;;18.49;45.57;99227.09;7258283;19;154025;-55
2023/03/14 05:05:20;;;;;;;;;;;;;;;18.49;45.49;99231.88;7268415;19;153730;-55
2023/03/14 05:07:47;;;;;;;;;;;;;;;18.48;45.37;99230.25;7259087;19;153978;-55
2023/03/14 05:10:14;;;;;;;;;;;;;;;18.47;45.37;99232.22;7259411;19;153818;-55
2023/03/14 05:12:40;;;;;;;;;;;;;;;18.46;45.76;99238.13;7260116;19;153010;-56
2023/03/14 05:15:08;;;;;;;;;;;;;;;18.47;45.35;99239.78;7260465;19;154013;-55
2023/03/14 05:17:35;;;;;;;;;;;;;;;18.45;45.42;99256.06;7260663;19;154295;-55
2023/03/14 05:20:07;;;;;;;;;;;;;;;18.45;45.26;99250.47;7258849;19;152780;-55
2023/03/14 05:22:34;;;;;;;;;;;;;;;18.43;45.26;99258.41;7254872;19;153951;-54
2023/03/14 05:25:01;;;;;;;;;;;;;;;18.42;45.36;99253.94;7256579;19;153242;-54
2023/03/14 05:27:28;;;;;;;;;;;;;;;18.42;45.40;99270.72;7263961;19;154138;-55
2023/03/14 05:29:55;;;;;;;;;;;;;;;18.46;45.06;99266.09;7259270;19;152262;-55
2023/03/14 05:32:22;;;;;;;;;;;;;;;18.51;45.73;99279.91;7258486;19;153202;-56
2023/03/14 05:34:49;;;;;;;;;;;;;;;18.61;45.57;99290.75;7259095;19;153665;-55
2023/03/14 05:37:16;;;;;;;;;;;;;;;18.68;45.37;99296.63;7261266;19;154025;-54
2023/03/14 05:39:45;;;;;;;;;;;;;;;18.72;45.33;99305.16;7259162;19;154743;-55
2023/03/14 05:42:13;;;;;;;;;;;;;;;18.76;45.80;99306.16;7259743;19;153475;-56
2023/03/14 05:44:40;;;;;;;;;;;;;;;18.80;45.81;99304.34;7262559;19;152676;-55
2023/03/14 05:47:07;;;;;;;;;;;;;;;18.84;46.18;99320.09;7259801;19;153989;-55
2023/03/14 05:49:33;;;;;;;;;;;;;;;18.88;46.48;99321.06;7265289;19;152199;-55
2023/03/14 05:52:00;;;;;;;;;;;;;;;18.93;46.02;99326.47;7259908;19;152993;-55
2023/03/14 05:54:27;;;;;;;;;;;;;;;18.99;46.98;99332.69;7257212;19;154375;-55
2023/03/14 05:56:54;;;;;;;;;;;;;;;19.04;46.90;99340.88;7260599;19;154408;-55
2023/03/14 05:59:21;;;;;;;;;;;;;;;19.10;46.77;99340.38;7258272;19;153988;-55
2023/03/14 06:01:48;;;;;;;;;;;;;;;19.16;46.47;99357.81;7255628;19;153315;-54
2023/03/14 06:04:15;;;;;;;;;;;;;;;19.20;46.00;99341.16;7257907;19;154020;-55
2023/03/14 06:06:42;;;;;;;;;;;;;;;19.26;45.82;99349.00;7254903;19;152854;-55
2023/03/14 06:09:09;;;;;;;;;;;;;;;19.32;45.71;99353.25;7265301;19;154282;-56
2023/03/14 06:11:35;;;;;;;;;;;;;;;19.38;45.77;99371.50;7259577;19;152971;-55
2023/03/14 06:14:02;;;;;;;;;;;;;;;19.43;45.55;99362.94;7258057;19;154377;-55
2023/03/14 06:16:29;;;;;;;;;;;;;;;19.49;45.71;99363.53;7260105;19;153991;-55
2023/03/14 06:18:56;;;;;;;;;;;;;;;19.55;45.78;99373.41;7256015;19;154670;-55
2023/03/14 06:21:23;;;;;;;;;;;;;;;19.61;45.49;99382.44;7256890;19;153384;-55
2023/03/14 06:23:50;;;;;;;;;;;;;;;19.67;45.44;99381.06;7254456;19;152765;-55
2023/03/14 06:26:17;;;;;;;;;;;;;;;19.71;45.27;99388.47;7260556;19;154750;-55
2023/03/14 06:28:44;;;;;;;;;;;;;;;19.77;45.38;99391.84;7253738;19;155342;-55
2023/03/14 06:31:11;;;;;;;;;;;;;;;19.82;44.97;99402.88;7265465;19;152858;-55
2023/03/14 06:33:38;;;;;;;;;;;;;;;19.87;44.69;99411.06;7256875;19;155658;-56
2023/03/14 06:36:05;;;;;;;;;;;;;;;19.92;44.66;99422.09;7260310;19;153673;-56
2023/03/14 06:38:32;;;;;;;;;;;;;;;19.97;44.44;99433.09;7257995;19;153852;-55
2023/03/14 06:41:02;;;;;;;;;;;;;;;20.02;44.29;99432.06;7260063;19;154837;-56
2023/03/14 06:43:29;;;;;;;;;;;;;;;20.07;44.20;99434.66;7257929;19;153322;-54
2023/03/14 06:45:56;;;;;;;;;;;;;;;20.12;44.30;99448.50;7259220;19;156087;-55
2023/03/14 06:48:23;;;;;;;;;;;;;;;20.17;43.88;99465.13;7255821;19;153957;-55
2023/03/14 06:50:50;;;;;;;;;;;;;;;20.20;43.82;99456.84;7257332;19;153542;-54
2023/03/14 06:53:17;;;;;;;;;;;;;;;20.25;44.08;99469.81;7261100;19;153758;-55
2023/03/14 06:55:45;;;;;;;;;;;;;;;20.30;43.98;99478.06;7255790;19;152881;-55
2023/03/14 06:58:12;;;;;;;;;;;;;;;20.33;44.45;99483.81;7255762;19;153888;-55
2023/03/14 07:00:39;;;;;;;;;;;;;;;20.37;43.96;99500.75;7256658;19;154474;-56
2023/03/14 07:03:06;;;;;;;;;;;;;;;20.43;43.78;99505.00;7253852;19;154259;-54
2023/03/14 07:05:33;;;;;;;;;;;;;;;20.42;43.95;99507.00;7256930;19;154286;-55
2023/03/14 07:08:00;;;;;;;;;;;;;;;20.43;43.38;99510.63;7254688;19;152643;-55
2023/03/14 07:10:27;;;;;;;;;;;;;;;20.46;43.32;99518.34;7254029;19;153313;-55
2023/03/14 07:12:54;;;;;;;;;;;;;;;20.49;43.53;99519.66;7254860;19;154886;-56
2023/03/14 07:15:20;;;;;;;;;;;;;;;20.53;43.28;99538.28;7261662;19;154427;-55
2023/03/14 07:17:48;;;;;;;;;;;;;;;20.52;42.81;99544.22;7257907;19;153521;-54
2023/03/14 07:20:16;;;;;;;;;;;;;;;20.54;42.99;99553.09;7254335;19;154002;-55
2023/03/14 07:22:43;;;;;;;;;;;;;;;20.54;42.69;99565.16;7255232;19;153438;-56
2023/03/14 07:25:11;;;;;;;;;;;;;;;20.55;42.22;99575.22;7255953;19;153585;-56
2023/03/14 07:27:39;;;;;;;;;;;;;;;20.37;39.90;99587.72;7255758;19;155746;-55
2023/03/14 07:30:06;;;;;;;;;;;;;;;20.31;38.65;99594.69;7255500;19;152740;-55
2023/03/14 07:32:33;;;;;;;;;;;;;;;20.30;38.57;99602.31;7254864;19;153848;-55
2023/03/14 07:35:01;;;;;;;;;;;;;;;20.35;38.15;99606.91;7253138;19;153782;-54
2023/03/14 07:37:29;;;;;;;;;;;;;;;20.33;38.24;99621.25;7262486;19;152015;-55
2023/03/14 07:39:57;;;;;;;;;;;;;;;20.35;38.10;99632.16;7252306;19;153469;-55
2023/03/14 07:42:25;;;;;;;;;;;;;;;20.38;38.18;99645.47;7258188;19;153765;-55
2023/03/14 07:44:52;;;;;;;;;;;;;;;20.33;38.50;99645.66;7259537;19;154044;-55
2023/03/14 07:47:19;;;;;;;;;;;;;;;20.31;38.63;99656.41;7253617;19;153757;-56
2023/03/14 07:49:46;;;;;;;;;;;;;;;20.31;38.68;99671.25;7255498;19;153851;-54
2023/03/14 07:52:13;;;;;;;;;;;;;;;20.26;38.80;99679.81;7253821;19;152034;-56
2023/03/14 07:54:40;;;;;;;;;;;;;;;20.26;38.59;99695.84;7253743;19;154399;-55
2023/03/14 07:57:07;;;;;;;;;;;;;;;20.25;38.65;99700.63;7264426;19;152204;-56
2023/03/14 07:59:34;;;;;;;;;;;;;;;20.25;38.63;99713.84;7254621;19;154092;-55
2023/03/14 08:02:01;;;;;;;;;;;;;;;20.22;39.02;99731.31;7254124;19;153409;-56
2023/03/14 08:04:28;;;;;;;;;;;;;;;20.23;38.76;99735.78;7256384;19;153215;-55
2023/03/14 08:06:55;;;;;;;;;;;;;;;20.19;39.06;99746.00;7257702;19;154481;-56
2023/03/14 08:09:24;;;;;;;;;;;;;;;20.20;39.05;99761.69;7255418;19;153693;-54
2023/03/14 08:11:53;;;;;;;;;;;;;;;20.19;39.62;99765.66;7254044;19;152429;-55
2023/03/14 08:14:23;;;;;;;;;;;;;;;20.18;39.39;99776.03;7255159;19;154852;-56
2023/03/14 08:16:50;;;;;;;;;;;;;;;20.20;39.24;99793.38;7257144;19;154783;-55
2023/03/14 08:19:19;;;;;;;;;;;;;;;20.21;39.86;99805.41;7261817;19;153481;-55
2023/03/14 08:21:48;;;;;;;;;;;;;;;20.25;39.99;99806.38;7255669;19;154077;-54
2023/03/14 08:24:15;;;;;;;;;;;;;;;20.27;39.77;99820.88;7253477;19;154591;-56
2023/03/14 08:26:42;;;;;;;;;;;;;;;20.29;39.90;99822.22;7259464;19;153917;-56
2023/03/14 08:29:12;;;;;;;;;;;;;;;20.33;39.55;99839.22;7260807;19;153392;-55
2023/03/14 08:31:39;;;;;;;;;;;;;;;20.37;39.42;99843.00;7263861;19;153545;-56
2023/03/14 08:34:07;;;;;;;;;;;;;;;20.37;39.65;99857.03;7261466;19;154032;-55
2023/03/14 08:36:34;;;;;;;;;;;;;;;20.40;39.38;99859.16;7261631;19;151856;-55
2023/03/14 08:39:03;;;;;;;;;;;;;;;20.39;39.31;99872.41;7257235;19;155593;-55
2023/03/14 08:41:30;;;;;;;;;;;;;;;20.42;39.37;99891.34;7268631;19;153608;-55
2023/03/14 08:43:58;;;;;;;;;;;;;;;20.45;39.38;99891.81;7265687;19;153631;-55
2023/03/14 08:46:25;;;;;;;;;;;;;;;20.46;39.30;99905.53;7263600;19;154127;-55
2023/03/14 08:48:52;;;;;;;;;;;;;;;20.49;39.64;99918.88;7259713;19;153511;-55
2023/03/14 08:51:19;;;;;;;;;;;;;;;20.48;39.29;99927.66;7262906;19;154615;-55
2023/03/14 08:53:46;;;;;;;;;;;;;;;20.48;39.52;99936.91;7259235;19;153584;-55
2023/03/14 08:56:13;;;;;;;;;;;;;;;20.49;39.01;99949.75;7259779;19;152174;-54
2023/03/14 08:58:41;;;;;;;;;;;;;;;20.49;39.03;99954.56;7260871;19;152889;-55
2023/03/14 09:01:09;;;;;;;;;;;;;;;20.51;39.41;99961.47;7260306;19;154655;-55
2023/03/14 09:03:40;;;;;;;;;;;;;;;20.49;38.97;99969.41;7264834;19;153763;-55
2023/03/14 09:06:09;;;;;;;;;;;;;;;20.50;38.93;99978.66;7257542;19;153021;-55
2023/03/14 09:08:36;;;;;;;;;;;;;;;20.50;39.04;99993.50;7255766;19;153912;-56
2023/03/14 09:11:07;;;;;;;;;;;;;;;20.51;39.32;99992.34;7259320;19;153115;-56
2023/03/14 09:13:34;;;;;;;;;;;;;;;20.51;39.25;100008.34;7259992;19;155652;-55
2023/03/14 09:16:01;;;;;;;;;;;;;;;20.48;39.29;100026.69;7259467;19;153149;-55
2023/03/14 09:18:30;;;;;;;;;;;;;;;20.47;38.99;100033.47;7258415;19;152756;-56
2023/03/14 09:20:57;;;;;;;;;;;;;;;20.46;39.42;100034.59;7258549;19;153136;-55
2023/03/14 09:23:24;;;;;;;;;;;;;;;20.48;39.21;100056.72;7254903;19;154448;-55
2023/03/14 09:25:55;;;;;;;;;;;;;;;20.46;39.46;100070.25;7263244;19;153020;-54
2023/03/14 09:28:23;;;;;;;;;;;;;;;20.45;39.36;100069.44;7258190;19;153310;-56
2023/03/14 09:30:50;;;;;;;;;;;;;;;20.44;38.96;100073.41;7260955;19;154747;-55
2023/03/14 09:33:17;;;;;;;;;;;;;;;20.44;39.15;100083.81;7258560;19;153904;-54
2023/03/14 09:35:44;;;;;;;;;;;;;;;20.42;38.85;100084.94;7260946;19;153754;-55
2023/03/14 09:38:11;;;;;;;;;;;;;;;20.40;38.81;100103.25;7256758;19;155414;-55
2023/03/14 09:40:39;;;;;;;;;;;;;;;20.39;39.06;100110.88;7256263;19;154168;-55
2023/03/14 09:43:06;;;;;;;;;;;;;;;20.39;38.67;100121.25;7255788;19;153680;-55
2023/03/14 09:45:36;;;;;;;;;;;;;;;20.38;38.70;100128.03;7259820;19;153188;-55
2023/03/14 09:48:04;;;;;;;;;;;;;;;20.37;39.06;100138.41;7264997;19;156305;-54
2023/03/14 09:50:36;;;;;;;;;;;;;;;20.35;39.04;100148.31;7258309;19;153416;-60
2023/03/14 09:53:09;;;;;;;;;;;;;;;20.36;38.87;100153.59;7255452;19;154149;-55
2023/03/14 09:55:36;;;;;;;;;;;;;;;20.32;39.15;100155.41;7254229;19;153444;-56
2023/03/14 09:58:08;;;;;;;;;;;;;;;20.30;38.78;100166.13;7256627;19;154230;-55
2023/03/14 10:00:36;;;;;;;;;;;;;;;20.24;39.20;100178.63;7245780;19;157980;-55
2023/03/14 10:03:08;;;;;;;;;;;;;;;20.23;39.20;100185.38;7253086;19;153287;-55
2023/03/14 10:05:35;;;;;;;;;;;;;;;20.23;38.85;100190.16;7256655;19;154715;-55
2023/03/14 10:08:02;;;;;;;;;;;;;;;20.26;39.03;100197.94;7262515;19;154687;-55
2023/03/14 10:10:29;;;;;;;;;;;;;;;20.28;38.85;100202.06;7256328;19;152470;-55
2023/03/14 10:12:59;;;;;;;;;;;;;;;20.29;39.26;100200.91;7256302;19;154778;-54
2023/03/14 10:15:29;;;;;;;;;;;;;;;20.29;39.11;100200.09;7257613;19;154467;-55
2023/03/14 10:17:58;;;;;;;;;;;;;;;20.30;39.11;100202.59;7258631;19;153922;-54
2023/03/14 10:20:32;;;;;;;;;;;;;;;20.33;39.22;100204.75;7251956;19;154552;-54
2023/03/14 10:23:03;;;;;;;;;;;;;;;20.38;39.42;100220.63;7256819;19;152874;-55
2023/03/14 10:25:31;;;;;;;;;;;;;;;20.45;39.38;100226.56;7254994;19;152716;-57
2023/03/14 10:27:58;;;;;;;;;;;;;;;20.45;40.00;100237.78;7256799;19;154469;-54
2023/03/14 10:30:29;;;;;;;;;;;;;;;20.48;40.36;100245.56;7263865;19;154058;-54
2023/03/14 10:32:56;;;;;;;;;;;;;;;20.52;40.38;100260.59;7257065;19;156769;-54
2023/03/14 10:35:24;;;;;;;;;;;;;;;20.55;40.50;100254.34;7259968;19;153434;-56
2023/03/14 10:37:54;;;;;;;;;;;;;;;20.58;40.28;100275.31;7257230;19;153912;-54
2023/03/14 10:40:25;;;;;;;;;;;;;;;20.62;40.15;100270.72;7254187;19;153206;-55
2023/03/14 10:42:52;;;;;;;;;;;;;;;20.64;40.41;100271.19;7259011;19;152228;-54
2023/03/14 10:45:22;;;;;;;;;;;;;;;20.66;40.60;100282.94;7258859;19;153137;-56
2023/03/14 10:47:50;;;;;;;;;;;;;;;20.70;40.44;100289.56;7256432;19;154579;-57
2023/03/14 10:50:23;;;;;;;;;;;;;;;20.72;40.47;100298.47;7256624;19;153729;-56
2023/03/14 10:52:52;;;;;;;;;;;;;;;20.73;40.67;100303.75;7264170;19;153708;-56
2023/03/14 10:55:38;;;;;;;;;;;;;;;20.75;40.10;100304.28;7253702;19;152928;-57
2023/03/14 10:58:16;;;;;;;;;;;;;;;20.77;40.45;100313.19;7256108;19;153605;-56
2023/03/14 11:00:45;;;;;;;;;;;;;;;20.79;40.28;100330.53;7258781;19;154539;-57
2023/03/14 11:03:13;;;;;;;;;;;;;;;20.81;40.27;100330.19;7257344;19;153118;-56
2023/03/14 11:05:46;;;;;;;;;;;;;;;20.81;39.83;100335.81;7258095;19;152944;-55
2023/03/14 11:08:16;;;;;;;;;;;;;;;20.82;39.63;100341.13;7256508;19;154186;-56
2023/03/14 11:10:47;;;;;;;;;;;;;;;20.82;40.05;100357.97;7258892;19;152913;-56
2023/03/14 11:13:17;;;;;;;;;;;;;;;20.83;39.92;100368.03;7258530;19;152807;-56
2023/03/14 11:15:47;;;;;;;;;;;;;;;20.83;40.15;100368.03;7263110;19;153805;-55
2023/03/14 11:18:17;;;;;;;;;;;;;;;20.84;40.04;100385.72;7258768;19;153212;-56
2023/03/14 11:20:45;;;;;;;;;;;;;;;20.84;39.95;100389.38;7255615;19;153281;-56
2023/03/14 11:23:15;;;;;;;;;;;;;;;20.84;40.35;100394.16;7256048;19;153854;-55
2023/03/14 11:25:44;;;;;;;;;;;;;;;20.86;40.16;100395.47;7257592;19;154397;-56
2023/03/14 11:28:14;;;;;;;;;;;;;;;20.87;40.15;100396.28;7255172;19;153667;-56
2023/03/14 11:30:48;;;;;;;;;;;;;;;20.89;40.07;100399.63;7258058;19;153115;-55
2023/03/14 11:33:17;;;;;;;;;;;;;;;20.88;40.75;100402.75;7256635;19;153193;-56
2023/03/14 11:35:45;;;;;;;;;;;;;;;20.89;40.15;100404.41;7254623;19;153497;-56
2023/03/14 11:38:13;;;;;;;;;;;;;;;20.91;40.14;100402.09;7259705;19;152303;-56
2023/03/14 11:40:41;;;;;;;;;;;;;;;20.93;39.77;100411.88;7251912;19;153097;-56
2023/03/14 11:43:09;;;;;;;;;;;;;;;20.88;39.61;100411.16;7258657;19;153141;-55
2023/03/14 11:45:37;;;;;;;;;;;;;;;20.86;39.47;100411.47;7256581;19;154729;-56
2023/03/14 11:48:14;;;;;;;;;;;;;;;20.81;39.41;100426.50;7254086;19;153327;-56
2023/03/14 11:50:42;;;;;;;;;;;;;;;20.83;38.78;100432.63;7255158;19;153083;-56
2023/03/14 11:53:14;;;;;;;;;;;;;;;20.79;38.86;100434.44;7257150;19;154124;-56
2023/03/14 11:55:42;;;;;;;;;;;;;;;20.74;38.18;100437.38;7251666;19;153588;-55
2023/03/14 11:58:10;;;;;;;;;;;;;;;20.66;37.39;100440.13;7254567;19;153868;-56
2023/03/14 12:00:38;;;;;;;;;;;;;;;20.58;38.10;100444.53;7265122;19;154192;-55
2023/03/14 12:03:08;;;;;;;;;;;;;;;20.55;37.95;100448.00;7264576;19;153161;-56
2023/03/14 12:05:39;;;;;;;;;;;;;;;20.57;38.06;100448.50;7262465;19;154066;-56
2023/03/14 12:08:08;;;;;;;;;;;;;;;20.78;39.22;100460.84;7262218;19;155247;-55
2023/03/14 12:10:38;;;;;;;;;;;;;;;20.77;41.37;100453.56;7263092;19;154201;-55
2023/03/14 12:13:07;;;;;;;;;;;;;;;20.79;41.76;100459.69;7264837;19;153436;-59
2023/03/14 12:15:38;;;;;;;;;;;;;;;20.76;41.20;100457.50;7263727;19;154726;-54
2023/03/14 12:18:19;;;;;;;;;;;;;;;20.82;40.41;100463.81;7249801;19;153406;-54
2023/03/14 12:20:51;;;;;;;;;;;;;;;20.85;39.94;100465.97;7265441;19;154003;-54
2023/03/14 12:23:20;;;;;;;;;;;;;;;20.79;39.60;100473.75;7255638;19;153209;-54
2023/03/14 12:25:47;;;;;;;;;;;;;;;20.73;39.38;100471.38;7260619;19;154359;-54
2023/03/14 12:28:18;;;;;;;;;;;;;;;20.73;39.12;100475.00;7254710;19;154279;-54
2023/03/14 12:30:45;;;;;;;;;;;;;;;20.74;39.30;100485.09;7241914;19;153804;-54
2023/03/14 12:33:20;;;;;;;;;;;;;;;20.75;39.48;100486.75;7248200;19;154107;-55
2023/03/14 12:35:50;;;;;;;;;;;;;;;20.76;38.99;100479.13;7249188;19;153710;-54